sensor_id;sensor_type;location;lat;lon;timestamp;P1;durP1;ratioP1;P2;durP2;ratioP2
14760;SDS011;7472;45.396;5.272;2022-09-17T00:00:09;3.95;;;3.15;;
14760;SDS011;7472;45.396;5.272;2022-09-17T00:02:36;4.43;;;3.13;;
14760;SDS011;7472;45.396;5.272;2022-09-17T00:05:04;7.45;;;3.90;;
14760;SDS011;7472;45.396;5.272;2022-09-17T00:07:33;6.63;;;3.83;;
14760;SDS011;7472;45.396;5.272;2022-09-17T00:10:00;4.78;;;3.38;;
14760;SDS011;7472;45.396;5.272;2022-09-17T00:12:28;6.47;;;3.55;;
14760;SDS011;7472;45.396;5.272;2022-09-17T00:14:57;4.97;;;3.38;;
14760;SDS011;7472;45.396;5.272;2022-09-17T00:17:24;5.13;;;3.50;;
14760;SDS011;7472;45.396;5.272;2022-09-17T00:19:51;5.45;;;3.22;;
14760;SDS011;7472;45.396;5.272;2022-09-17T00:22:19;4.82;;;3.40;;
14760;SDS011;7472;45.396;5.272;2022-09-17T00:24:48;4.45;;;2.70;;
14760;SDS011;7472;45.396;5.272;2022-09-17T00:27:16;6.93;;;3.40;;
14760;SDS011;7472;45.396;5.272;2022-09-17T00:29:43;5.22;;;3.50;;
14760;SDS011;7472;45.396;5.272;2022-09-17T00:32:10;6.82;;;2.65;;
14760;SDS011;7472;45.396;5.272;2022-09-17T00:34:38;2.97;;;1.77;;
14760;SDS011;7472;45.396;5.272;2022-09-17T00:37:05;6.10;;;3.20;;
14760;SDS011;7472;45.396;5.272;2022-09-17T00:39:33;4.28;;;2.42;;
14760;SDS011;7472;45.396;5.272;2022-09-17T00:42:01;5.10;;;3.20;;
14760;SDS011;7472;45.396;5.272;2022-09-17T00:44:42;5.68;;;2.80;;
14760;SDS011;7472;45.396;5.272;2022-09-17T00:47:11;4.25;;;2.63;;
14760;SDS011;7472;45.396;5.272;2022-09-17T00:49:39;4.47;;;2.92;;
14760;SDS011;7472;45.396;5.272;2022-09-17T00:52:07;5.90;;;3.08;;
14760;SDS011;7472;45.396;5.272;2022-09-17T00:54:36;5.20;;;2.80;;
14760;SDS011;7472;45.396;5.272;2022-09-17T00:57:07;5.50;;;2.58;;
14760;SDS011;7472;45.396;5.272;2022-09-17T00:59:34;7.47;;;3.00;;
14760;SDS011;7472;45.396;5.272;2022-09-17T01:02:02;5.28;;;3.05;;
14760;SDS011;7472;45.396;5.272;2022-09-17T01:04:30;6.93;;;2.88;;
14760;SDS011;7472;45.396;5.272;2022-09-17T01:07:00;7.28;;;3.70;;
14760;SDS011;7472;45.396;5.272;2022-09-17T01:09:32;5.25;;;3.47;;
14760;SDS011;7472;45.396;5.272;2022-09-17T01:12:08;4.78;;;3.30;;
14760;SDS011;7472;45.396;5.272;2022-09-17T01:14:44;6.25;;;3.00;;
14760;SDS011;7472;45.396;5.272;2022-09-17T01:17:16;5.22;;;3.90;;
14760;SDS011;7472;45.396;5.272;2022-09-17T01:19:57;4.03;;;3.20;;
14760;SDS011;7472;45.396;5.272;2022-09-17T01:22:31;4.15;;;3.22;;
14760;SDS011;7472;45.396;5.272;2022-09-17T01:25:05;4.00;;;3.42;;
14760;SDS011;7472;45.396;5.272;2022-09-17T01:28:02;3.65;;;2.88;;
14760;SDS011;7472;45.396;5.272;2022-09-17T01:30:34;5.30;;;3.05;;
14760;SDS011;7472;45.396;5.272;2022-09-17T01:33:05;9.10;;;3.78;;
14760;SDS011;7472;45.396;5.272;2022-09-17T01:35:38;8.80;;;3.78;;
14760;SDS011;7472;45.396;5.272;2022-09-17T01:38:09;5.57;;;3.55;;
14760;SDS011;7472;45.396;5.272;2022-09-17T01:40:39;5.05;;;3.22;;
14760;SDS011;7472;45.396;5.272;2022-09-17T01:43:12;5.15;;;3.53;;
14760;SDS011;7472;45.396;5.272;2022-09-17T01:45:45;4.65;;;3.30;;
14760;SDS011;7472;45.396;5.272;2022-09-17T01:48:15;6.00;;;3.70;;
14760;SDS011;7472;45.396;5.272;2022-09-17T01:50:45;4.30;;;3.90;;
14760;SDS011;7472;45.396;5.272;2022-09-17T01:53:13;4.00;;;3.60;;
14760;SDS011;7472;45.396;5.272;2022-09-17T01:55:42;6.50;;;3.65;;
14760;SDS011;7472;45.396;5.272;2022-09-17T01:58:14;4.40;;;3.90;;
14760;SDS011;7472;45.396;5.272;2022-09-17T02:00:43;4.68;;;3.80;;
14760;SDS011;7472;45.396;5.272;2022-09-17T02:03:18;5.90;;;4.18;;
14760;SDS011;7472;45.396;5.272;2022-09-17T02:05:48;5.43;;;3.97;;
14760;SDS011;7472;45.396;5.272;2022-09-17T02:08:17;7.20;;;4.30;;
14760;SDS011;7472;45.396;5.272;2022-09-17T02:10:47;8.50;;;4.63;;
14760;SDS011;7472;45.396;5.272;2022-09-17T02:13:16;7.43;;;4.72;;
14760;SDS011;7472;45.396;5.272;2022-09-17T02:15:46;7.00;;;4.68;;
14760;SDS011;7472;45.396;5.272;2022-09-17T02:18:18;6.90;;;4.20;;
14760;SDS011;7472;45.396;5.272;2022-09-17T02:20:51;4.82;;;3.72;;
14760;SDS011;7472;45.396;5.272;2022-09-17T02:23:21;5.05;;;4.55;;
14760;SDS011;7472;45.396;5.272;2022-09-17T02:25:51;6.18;;;4.20;;
14760;SDS011;7472;45.396;5.272;2022-09-17T02:28:21;6.95;;;4.93;;
14760;SDS011;7472;45.396;5.272;2022-09-17T02:30:51;6.18;;;4.07;;
14760;SDS011;7472;45.396;5.272;2022-09-17T02:33:20;4.63;;;4.22;;
14760;SDS011;7472;45.396;5.272;2022-09-17T02:35:48;6.43;;;4.35;;
14760;SDS011;7472;45.396;5.272;2022-09-17T02:38:20;8.35;;;4.68;;
14760;SDS011;7472;45.396;5.272;2022-09-17T02:40:48;7.95;;;4.78;;
14760;SDS011;7472;45.396;5.272;2022-09-17T02:43:20;7.20;;;5.03;;
14760;SDS011;7472;45.396;5.272;2022-09-17T02:45:51;6.53;;;4.45;;
14760;SDS011;7472;45.396;5.272;2022-09-17T02:48:35;8.05;;;4.40;;
14760;SDS011;7472;45.396;5.272;2022-09-17T02:51:10;8.23;;;4.32;;
14760;SDS011;7472;45.396;5.272;2022-09-17T02:53:42;5.57;;;3.38;;
14760;SDS011;7472;45.396;5.272;2022-09-17T02:56:13;6.32;;;3.88;;
14760;SDS011;7472;45.396;5.272;2022-09-17T02:58:46;9.95;;;4.10;;
14760;SDS011;7472;45.396;5.272;2022-09-17T03:01:19;7.78;;;4.57;;
14760;SDS011;7472;45.396;5.272;2022-09-17T03:03:49;9.30;;;4.80;;
14760;SDS011;7472;45.396;5.272;2022-09-17T03:06:17;4.60;;;4.13;;
14760;SDS011;7472;45.396;5.272;2022-09-17T03:08:44;8.80;;;4.63;;
14760;SDS011;7472;45.396;5.272;2022-09-17T03:11:12;5.32;;;4.25;;
14760;SDS011;7472;45.396;5.272;2022-09-17T03:13:40;8.05;;;4.95;;
14760;SDS011;7472;45.396;5.272;2022-09-17T03:16:07;7.60;;;4.45;;
14760;SDS011;7472;45.396;5.272;2022-09-17T03:18:35;11.65;;;4.60;;
14760;SDS011;7472;45.396;5.272;2022-09-17T03:21:04;6.07;;;4.45;;
14760;SDS011;7472;45.396;5.272;2022-09-17T03:23:31;9.40;;;5.18;;
14760;SDS011;7472;45.396;5.272;2022-09-17T03:25:58;5.45;;;4.78;;
14760;SDS011;7472;45.396;5.272;2022-09-17T03:28:26;6.95;;;4.97;;
14760;SDS011;7472;45.396;5.272;2022-09-17T03:30:53;7.95;;;4.85;;
14760;SDS011;7472;45.396;5.272;2022-09-17T03:33:20;9.57;;;4.93;;
14760;SDS011;7472;45.396;5.272;2022-09-17T03:35:48;7.10;;;5.38;;
14760;SDS011;7472;45.396;5.272;2022-09-17T03:38:17;12.68;;;4.57;;
14760;SDS011;7472;45.396;5.272;2022-09-17T03:40:44;7.43;;;5.00;;
14760;SDS011;7472;45.396;5.272;2022-09-17T03:43:22;5.80;;;4.53;;
14760;SDS011;7472;45.396;5.272;2022-09-17T03:45:49;9.50;;;4.78;;
14760;SDS011;7472;45.396;5.272;2022-09-17T03:48:17;7.32;;;4.47;;
14760;SDS011;7472;45.396;5.272;2022-09-17T03:50:44;6.85;;;4.45;;
14760;SDS011;7472;45.396;5.272;2022-09-17T03:53:12;4.70;;;4.05;;
14760;SDS011;7472;45.396;5.272;2022-09-17T03:55:40;4.57;;;3.65;;
14760;SDS011;7472;45.396;5.272;2022-09-17T03:58:08;4.55;;;3.75;;
14760;SDS011;7472;45.396;5.272;2022-09-17T04:00:35;7.95;;;4.13;;
14760;SDS011;7472;45.396;5.272;2022-09-17T04:03:03;6.47;;;3.65;;
14760;SDS011;7472;45.396;5.272;2022-09-17T04:05:30;7.25;;;3.72;;
14760;SDS011;7472;45.396;5.272;2022-09-17T04:07:57;5.10;;;4.40;;
14760;SDS011;7472;45.396;5.272;2022-09-17T04:10:25;2.70;;;2.33;;
14760;SDS011;7472;45.396;5.272;2022-09-17T04:12:54;5.28;;;3.63;;
14760;SDS011;7472;45.396;5.272;2022-09-17T04:15:22;5.53;;;3.08;;
14760;SDS011;7472;45.396;5.272;2022-09-17T04:17:49;5.13;;;3.80;;
14760;SDS011;7472;45.396;5.272;2022-09-17T04:20:16;5.13;;;2.85;;
14760;SDS011;7472;45.396;5.272;2022-09-17T04:22:44;2.90;;;2.55;;
14760;SDS011;7472;45.396;5.272;2022-09-17T04:25:11;4.50;;;3.45;;
14760;SDS011;7472;45.396;5.272;2022-09-17T04:27:38;5.25;;;3.38;;
14760;SDS011;7472;45.396;5.272;2022-09-17T04:30:08;7.70;;;4.03;;
14760;SDS011;7472;45.396;5.272;2022-09-17T04:32:35;4.78;;;3.80;;
14760;SDS011;7472;45.396;5.272;2022-09-17T04:35:03;5.90;;;3.13;;
14760;SDS011;7472;45.396;5.272;2022-09-17T04:37:30;4.80;;;3.33;;
14760;SDS011;7472;45.396;5.272;2022-09-17T04:39:58;5.63;;;4.38;;
14760;SDS011;7472;45.396;5.272;2022-09-17T04:42:25;4.18;;;3.75;;
14760;SDS011;7472;45.396;5.272;2022-09-17T04:44:53;5.20;;;3.55;;
14760;SDS011;7472;45.396;5.272;2022-09-17T04:47:23;5.15;;;2.63;;
14760;SDS011;7472;45.396;5.272;2022-09-17T04:49:51;6.47;;;3.40;;
14760;SDS011;7472;45.396;5.272;2022-09-17T04:52:18;6.88;;;4.00;;
14760;SDS011;7472;45.396;5.272;2022-09-17T04:54:46;6.68;;;4.13;;
14760;SDS011;7472;45.396;5.272;2022-09-17T04:57:13;5.75;;;4.28;;
14760;SDS011;7472;45.396;5.272;2022-09-17T04:59:41;4.43;;;3.15;;
14760;SDS011;7472;45.396;5.272;2022-09-17T05:02:08;8.07;;;4.30;;
14760;SDS011;7472;45.396;5.272;2022-09-17T05:04:37;5.30;;;2.95;;
14760;SDS011;7472;45.396;5.272;2022-09-17T05:07:05;4.75;;;3.50;;
14760;SDS011;7472;45.396;5.272;2022-09-17T05:09:32;5.20;;;3.17;;
14760;SDS011;7472;45.396;5.272;2022-09-17T05:12:00;5.68;;;3.60;;
14760;SDS011;7472;45.396;5.272;2022-09-17T05:14:28;3.47;;;3.05;;
14760;SDS011;7472;45.396;5.272;2022-09-17T05:16:56;4.75;;;3.28;;
14760;SDS011;7472;45.396;5.272;2022-09-17T05:19:23;8.32;;;3.15;;
14760;SDS011;7472;45.396;5.272;2022-09-17T05:21:52;4.10;;;2.90;;
14760;SDS011;7472;45.396;5.272;2022-09-17T05:24:20;5.80;;;2.88;;
14760;SDS011;7472;45.396;5.272;2022-09-17T05:26:47;4.97;;;2.67;;
14760;SDS011;7472;45.396;5.272;2022-09-17T05:29:15;4.85;;;3.38;;
14760;SDS011;7472;45.396;5.272;2022-09-17T05:31:42;4.22;;;3.53;;
14760;SDS011;7472;45.396;5.272;2022-09-17T05:34:10;3.33;;;2.95;;
14760;SDS011;7472;45.396;5.272;2022-09-17T05:36:38;4.10;;;3.28;;
14760;SDS011;7472;45.396;5.272;2022-09-17T05:39:07;3.80;;;3.20;;
14760;SDS011;7472;45.396;5.272;2022-09-17T05:41:34;4.72;;;3.15;;
14760;SDS011;7472;45.396;5.272;2022-09-17T05:44:02;7.13;;;3.08;;
14760;SDS011;7472;45.396;5.272;2022-09-17T05:46:29;3.97;;;2.90;;
14760;SDS011;7472;45.396;5.272;2022-09-17T05:48:57;4.05;;;3.15;;
14760;SDS011;7472;45.396;5.272;2022-09-17T05:51:25;3.70;;;3.10;;
14760;SDS011;7472;45.396;5.272;2022-09-17T05:53:53;3.90;;;3.15;;
14760;SDS011;7472;45.396;5.272;2022-09-17T05:56:22;3.63;;;3.28;;
14760;SDS011;7472;45.396;5.272;2022-09-17T05:58:49;4.93;;;3.10;;
14760;SDS011;7472;45.396;5.272;2022-09-17T06:01:17;2.28;;;2.05;;
14760;SDS011;7472;45.396;5.272;2022-09-17T06:03:45;4.82;;;2.97;;
14760;SDS011;7472;45.396;5.272;2022-09-17T06:06:12;27.63;;;24.90;;
14760;SDS011;7472;45.396;5.272;2022-09-17T06:08:40;4.80;;;2.90;;
14760;SDS011;7472;45.396;5.272;2022-09-17T06:11:08;5.38;;;2.90;;
14760;SDS011;7472;45.396;5.272;2022-09-17T06:13:37;5.78;;;2.97;;
14760;SDS011;7472;45.396;5.272;2022-09-17T06:16:04;4.03;;;2.67;;
14760;SDS011;7472;45.396;5.272;2022-09-17T06:18:32;5.65;;;2.53;;
14760;SDS011;7472;45.396;5.272;2022-09-17T06:21:00;3.90;;;2.63;;
14760;SDS011;7472;45.396;5.272;2022-09-17T06:23:30;6.43;;;2.42;;
14760;SDS011;7472;45.396;5.272;2022-09-17T06:25:59;5.05;;;2.17;;
14760;SDS011;7472;45.396;5.272;2022-09-17T06:28:27;3.35;;;2.13;;
14760;SDS011;7472;45.396;5.272;2022-09-17T06:31:00;3.42;;;2.28;;
14760;SDS011;7472;45.396;5.272;2022-09-17T06:33:28;3.83;;;2.10;;
14760;SDS011;7472;45.396;5.272;2022-09-17T06:35:56;3.40;;;2.20;;
14760;SDS011;7472;45.396;5.272;2022-09-17T06:38:25;7.20;;;2.25;;
14760;SDS011;7472;45.396;5.272;2022-09-17T06:40:52;3.05;;;2.13;;
14760;SDS011;7472;45.396;5.272;2022-09-17T06:43:20;3.08;;;2.08;;
14760;SDS011;7472;45.396;5.272;2022-09-17T06:45:51;4.10;;;2.00;;
14760;SDS011;7472;45.396;5.272;2022-09-17T06:48:20;2.28;;;1.90;;
14760;SDS011;7472;45.396;5.272;2022-09-17T06:50:48;3.72;;;2.25;;
14760;SDS011;7472;45.396;5.272;2022-09-17T06:53:15;3.80;;;1.98;;
14760;SDS011;7472;45.396;5.272;2022-09-17T06:55:44;2.85;;;2.22;;
14760;SDS011;7472;45.396;5.272;2022-09-17T06:58:11;7.82;;;2.05;;
14760;SDS011;7472;45.396;5.272;2022-09-17T07:00:38;3.95;;;1.70;;
14760;SDS011;7472;45.396;5.272;2022-09-17T07:03:07;3.38;;;1.25;;
14760;SDS011;7472;45.396;5.272;2022-09-17T07:05:36;2.65;;;1.52;;
14760;SDS011;7472;45.396;5.272;2022-09-17T07:08:04;3.90;;;1.67;;
14760;SDS011;7472;45.396;5.272;2022-09-17T07:10:31;2.45;;;1.70;;
14760;SDS011;7472;45.396;5.272;2022-09-17T07:12:59;3.55;;;1.48;;
14760;SDS011;7472;45.396;5.272;2022-09-17T07:15:26;2.95;;;1.52;;
14760;SDS011;7472;45.396;5.272;2022-09-17T07:17:53;3.38;;;1.40;;
14760;SDS011;7472;45.396;5.272;2022-09-17T07:20:21;3.13;;;1.63;;
14760;SDS011;7472;45.396;5.272;2022-09-17T07:22:57;2.15;;;1.40;;
14760;SDS011;7472;45.396;5.272;2022-09-17T07:25:25;1.50;;;1.15;;
14760;SDS011;7472;45.396;5.272;2022-09-17T07:27:52;3.00;;;1.40;;
14760;SDS011;7472;45.396;5.272;2022-09-17T07:30:20;4.32;;;1.70;;
14760;SDS011;7472;45.396;5.272;2022-09-17T07:32:48;3.97;;;1.20;;
14760;SDS011;7472;45.396;5.272;2022-09-17T07:35:15;5.53;;;1.52;;
14760;SDS011;7472;45.396;5.272;2022-09-17T07:37:43;2.03;;;1.25;;
14760;SDS011;7472;45.396;5.272;2022-09-17T07:40:13;1.77;;;0.93;;
14760;SDS011;7472;45.396;5.272;2022-09-17T07:42:40;3.28;;;1.35;;
14760;SDS011;7472;45.396;5.272;2022-09-17T07:45:08;2.28;;;1.60;;
14760;SDS011;7472;45.396;5.272;2022-09-17T07:47:39;2.42;;;1.40;;
14760;SDS011;7472;45.396;5.272;2022-09-17T07:50:07;7.65;;;1.27;;
14760;SDS011;7472;45.396;5.272;2022-09-17T07:52:35;2.00;;;1.33;;
14760;SDS011;7472;45.396;5.272;2022-09-17T07:55:02;3.38;;;1.25;;
14760;SDS011;7472;45.396;5.272;2022-09-17T07:57:31;2.88;;;1.02;;
14760;SDS011;7472;45.396;5.272;2022-09-17T07:59:59;1.48;;;0.88;;
14760;SDS011;7472;45.396;5.272;2022-09-17T08:02:27;2.35;;;1.20;;
14760;SDS011;7472;45.396;5.272;2022-09-17T08:04:54;1.13;;;1.00;;
14760;SDS011;7472;45.396;5.272;2022-09-17T08:07:22;8.00;;;1.95;;
14760;SDS011;7472;45.396;5.272;2022-09-17T08:09:50;2.70;;;0.73;;
14760;SDS011;7472;45.396;5.272;2022-09-17T08:12:17;1.02;;;0.93;;
14760;SDS011;7472;45.396;5.272;2022-09-17T08:14:48;2.53;;;0.80;;
14760;SDS011;7472;45.396;5.272;2022-09-17T08:17:16;2.40;;;0.90;;
14760;SDS011;7472;45.396;5.272;2022-09-17T08:19:43;1.10;;;0.70;;
14760;SDS011;7472;45.396;5.272;2022-09-17T08:22:10;0.88;;;0.88;;
14760;SDS011;7472;45.396;5.272;2022-09-17T08:24:38;2.25;;;1.10;;
14760;SDS011;7472;45.396;5.272;2022-09-17T08:27:06;2.55;;;1.00;;
14760;SDS011;7472;45.396;5.272;2022-09-17T08:29:34;2.90;;;0.90;;
14760;SDS011;7472;45.396;5.272;2022-09-17T08:32:03;1.08;;;0.60;;
14760;SDS011;7472;45.396;5.272;2022-09-17T08:34:30;1.50;;;0.75;;
14760;SDS011;7472;45.396;5.272;2022-09-17T08:36:58;3.72;;;0.82;;
14760;SDS011;7472;45.396;5.272;2022-09-17T08:39:27;3.40;;;0.75;;
14760;SDS011;7472;45.396;5.272;2022-09-17T08:41:56;1.63;;;0.77;;
14760;SDS011;7472;45.396;5.272;2022-09-17T08:44:29;1.63;;;1.08;;
14760;SDS011;7472;45.396;5.272;2022-09-17T08:46:58;1.95;;;0.73;;
14760;SDS011;7472;45.396;5.272;2022-09-17T08:49:33;1.05;;;0.60;;
14760;SDS011;7472;45.396;5.272;2022-09-17T08:54:52;2.65;;;0.70;;
14760;SDS011;7472;45.396;5.272;2022-09-17T08:57:24;0.80;;;0.60;;
14760;SDS011;7472;45.396;5.272;2022-09-17T08:59:56;4.00;;;0.75;;
14760;SDS011;7472;45.396;5.272;2022-09-17T09:02:28;2.67;;;0.73;;
14760;SDS011;7472;45.396;5.272;2022-09-17T09:05:06;2.17;;;0.98;;
14760;SDS011;7472;45.396;5.272;2022-09-17T09:07:38;3.05;;;0.70;;
14760;SDS011;7472;45.396;5.272;2022-09-17T09:10:11;0.85;;;0.43;;
14760;SDS011;7472;45.396;5.272;2022-09-17T09:12:40;2.70;;;0.32;;
14760;SDS011;7472;45.396;5.272;2022-09-17T09:15:15;2.75;;;0.40;;
14760;SDS011;7472;45.396;5.272;2022-09-17T09:17:45;1.55;;;0.63;;
14760;SDS011;7472;45.396;5.272;2022-09-17T09:20:16;1.38;;;0.50;;
14760;SDS011;7472;45.396;5.272;2022-09-17T09:22:45;1.42;;;0.90;;
14760;SDS011;7472;45.396;5.272;2022-09-17T09:25:17;0.50;;;0.38;;
14760;SDS011;7472;45.396;5.272;2022-09-17T09:27:50;0.70;;;0.70;;
14760;SDS011;7472;45.396;5.272;2022-09-17T09:30:18;1.83;;;0.57;;
14760;SDS011;7472;45.396;5.272;2022-09-17T09:32:51;1.05;;;0.70;;
14760;SDS011;7472;45.396;5.272;2022-09-17T09:35:24;0.57;;;0.25;;
14760;SDS011;7472;45.396;5.272;2022-09-17T09:37:54;0.50;;;0.50;;
14760;SDS011;7472;45.396;5.272;2022-09-17T09:40:30;3.17;;;0.68;;
14760;SDS011;7472;45.396;5.272;2022-09-17T09:43:00;0.88;;;0.40;;
14760;SDS011;7472;45.396;5.272;2022-09-17T09:45:34;0.85;;;0.57;;
14760;SDS011;7472;45.396;5.272;2022-09-17T09:48:05;3.80;;;0.70;;
14760;SDS011;7472;45.396;5.272;2022-09-17T09:50:38;3.78;;;0.60;;
14760;SDS011;7472;45.396;5.272;2022-09-17T09:53:13;2.47;;;0.70;;
14760;SDS011;7472;45.396;5.272;2022-09-17T09:55:48;2.42;;;0.68;;
14760;SDS011;7472;45.396;5.272;2022-09-17T09:58:20;5.57;;;1.80;;
14760;SDS011;7472;45.396;5.272;2022-09-17T10:00:50;1.17;;;0.60;;
14760;SDS011;7472;45.396;5.272;2022-09-17T10:03:18;1.33;;;0.82;;
14760;SDS011;7472;45.396;5.272;2022-09-17T10:05:55;0.88;;;0.50;;
14760;SDS011;7472;45.396;5.272;2022-09-17T10:08:24;1.17;;;0.65;;
14760;SDS011;7472;45.396;5.272;2022-09-17T10:10:53;1.33;;;0.70;;
14760;SDS011;7472;45.396;5.272;2022-09-17T10:13:21;3.13;;;0.77;;
14760;SDS011;7472;45.396;5.272;2022-09-17T10:15:48;3.38;;;0.70;;
14760;SDS011;7472;45.396;5.272;2022-09-17T10:18:16;0.47;;;0.22;;
14760;SDS011;7472;45.396;5.272;2022-09-17T10:23:28;1.33;;;0.90;;
14760;SDS011;7472;45.396;5.272;2022-09-17T10:25:58;2.75;;;0.70;;
14760;SDS011;7472;45.396;5.272;2022-09-17T10:28:38;1.25;;;0.70;;
14760;SDS011;7472;45.396;5.272;2022-09-17T10:31:07;2.28;;;0.65;;
14760;SDS011;7472;45.396;5.272;2022-09-17T10:33:37;1.02;;;0.98;;
14760;SDS011;7472;45.396;5.272;2022-09-17T10:36:05;1.70;;;0.52;;
14760;SDS011;7472;45.396;5.272;2022-09-17T10:38:36;2.63;;;1.25;;
14760;SDS011;7472;45.396;5.272;2022-09-17T10:43:49;1.52;;;0.50;;
14760;SDS011;7472;45.396;5.272;2022-09-17T10:46:18;1.55;;;0.43;;
14760;SDS011;7472;45.396;5.272;2022-09-17T10:48:52;1.58;;;0.63;;
14760;SDS011;7472;45.396;5.272;2022-09-17T10:51:23;1.63;;;0.30;;
14760;SDS011;7472;45.396;5.272;2022-09-17T10:54:00;2.78;;;0.90;;
14760;SDS011;7472;45.396;5.272;2022-09-17T10:56:30;4.20;;;0.40;;
14760;SDS011;7472;45.396;5.272;2022-09-17T10:59:02;0.50;;;0.30;;
14760;SDS011;7472;45.396;5.272;2022-09-17T11:01:33;1.23;;;0.50;;
14760;SDS011;7472;45.396;5.272;2022-09-17T11:04:13;2.67;;;0.50;;
14760;SDS011;7472;45.396;5.272;2022-09-17T11:06:50;1.75;;;0.50;;
14760;SDS011;7472;45.396;5.272;2022-09-17T11:09:25;2.35;;;0.45;;
14760;SDS011;7472;45.396;5.272;2022-09-17T11:12:07;2.83;;;0.88;;
14760;SDS011;7472;45.396;5.272;2022-09-17T11:14:43;4.15;;;0.50;;
14760;SDS011;7472;45.396;5.272;2022-09-17T11:17:18;0.60;;;0.35;;
14760;SDS011;7472;45.396;5.272;2022-09-17T11:19:53;1.65;;;0.57;;
14760;SDS011;7472;45.396;5.272;2022-09-17T11:22:26;1.27;;;0.68;;
14760;SDS011;7472;45.396;5.272;2022-09-17T11:25:02;0.98;;;0.57;;
14760;SDS011;7472;45.396;5.272;2022-09-17T11:27:36;2.42;;;0.70;;
14760;SDS011;7472;45.396;5.272;2022-09-17T11:30:09;2.20;;;0.40;;
14760;SDS011;7472;45.396;5.272;2022-09-17T11:32:52;0.77;;;0.55;;
14760;SDS011;7472;45.396;5.272;2022-09-17T11:35:25;2.35;;;0.63;;
14760;SDS011;7472;45.396;5.272;2022-09-17T11:37:55;3.60;;;0.30;;
14760;SDS011;7472;45.396;5.272;2022-09-17T11:40:28;2.15;;;0.90;;
14760;SDS011;7472;45.396;5.272;2022-09-17T11:43:01;2.65;;;0.60;;
14760;SDS011;7472;45.396;5.272;2022-09-17T11:45:31;2.47;;;0.85;;
14760;SDS011;7472;45.396;5.272;2022-09-17T11:48:00;1.38;;;0.77;;
14760;SDS011;7472;45.396;5.272;2022-09-17T11:50:30;1.77;;;0.63;;
14760;SDS011;7472;45.396;5.272;2022-09-17T11:53:00;0.90;;;0.55;;
14760;SDS011;7472;45.396;5.272;2022-09-17T11:55:34;1.67;;;0.50;;
14760;SDS011;7472;45.396;5.272;2022-09-17T11:58:07;1.38;;;0.60;;
14760;SDS011;7472;45.396;5.272;2022-09-17T12:00:37;2.35;;;0.70;;
14760;SDS011;7472;45.396;5.272;2022-09-17T12:03:09;2.40;;;0.60;;
14760;SDS011;7472;45.396;5.272;2022-09-17T12:05:40;1.15;;;0.73;;
14760;SDS011;7472;45.396;5.272;2022-09-17T12:08:09;1.60;;;0.52;;
14760;SDS011;7472;45.396;5.272;2022-09-17T12:10:41;2.05;;;0.60;;
14760;SDS011;7472;45.396;5.272;2022-09-17T12:13:15;1.48;;;0.40;;
14760;SDS011;7472;45.396;5.272;2022-09-17T12:15:45;3.55;;;0.55;;
14760;SDS011;7472;45.396;5.272;2022-09-17T12:18:18;3.70;;;0.63;;
14760;SDS011;7472;45.396;5.272;2022-09-17T12:20:48;1.17;;;0.65;;
14760;SDS011;7472;45.396;5.272;2022-09-17T12:23:29;1.52;;;0.45;;
14760;SDS011;7472;45.396;5.272;2022-09-17T12:26:01;4.65;;;0.70;;
14760;SDS011;7472;45.396;5.272;2022-09-17T12:28:32;1.92;;;0.60;;
14760;SDS011;7472;45.396;5.272;2022-09-17T12:31:04;0.63;;;0.50;;
14760;SDS011;7472;45.396;5.272;2022-09-17T12:33:33;3.85;;;0.98;;
14760;SDS011;7472;45.396;5.272;2022-09-17T12:36:23;1.42;;;0.60;;
14760;SDS011;7472;45.396;5.272;2022-09-17T12:41:47;1.55;;;0.60;;
14760;SDS011;7472;45.396;5.272;2022-09-17T12:44:32;3.25;;;0.50;;
14760;SDS011;7472;45.396;5.272;2022-09-17T12:47:06;2.05;;;0.50;;
14760;SDS011;7472;45.396;5.272;2022-09-17T12:49:40;2.67;;;0.35;;
14760;SDS011;7472;45.396;5.272;2022-09-17T12:52:13;2.40;;;0.60;;
14760;SDS011;7472;45.396;5.272;2022-09-17T12:54:53;2.20;;;0.50;;
14760;SDS011;7472;45.396;5.272;2022-09-17T12:57:29;2.33;;;0.50;;
14760;SDS011;7472;45.396;5.272;2022-09-17T12:59:59;2.35;;;0.70;;
14760;SDS011;7472;45.396;5.272;2022-09-17T13:02:29;1.77;;;0.47;;
14760;SDS011;7472;45.396;5.272;2022-09-17T13:05:04;1.30;;;0.60;;
14760;SDS011;7472;45.396;5.272;2022-09-17T13:07:45;1.40;;;0.70;;
14760;SDS011;7472;45.396;5.272;2022-09-17T13:10:23;1.27;;;0.30;;
14760;SDS011;7472;45.396;5.272;2022-09-17T13:12:56;2.78;;;0.80;;
14760;SDS011;7472;45.396;5.272;2022-09-17T13:15:38;1.38;;;0.45;;
14760;SDS011;7472;45.396;5.272;2022-09-17T13:18:11;2.35;;;0.60;;
14760;SDS011;7472;45.396;5.272;2022-09-17T13:20:42;0.73;;;0.45;;
14760;SDS011;7472;45.396;5.272;2022-09-17T13:23:10;1.10;;;0.70;;
14760;SDS011;7472;45.396;5.272;2022-09-17T13:25:48;1.95;;;0.75;;
14760;SDS011;7472;45.396;5.272;2022-09-17T13:28:17;1.35;;;0.60;;
14760;SDS011;7472;45.396;5.272;2022-09-17T13:30:54;1.15;;;0.38;;
14760;SDS011;7472;45.396;5.272;2022-09-17T13:36:19;3.45;;;0.70;;
14760;SDS011;7472;45.396;5.272;2022-09-17T13:39:02;1.85;;;0.60;;
14760;SDS011;7472;45.396;5.272;2022-09-17T13:41:31;3.03;;;0.60;;
14760;SDS011;7472;45.396;5.272;2022-09-17T13:44:01;1.83;;;0.50;;
14760;SDS011;7472;45.396;5.272;2022-09-17T13:46:31;2.58;;;0.63;;
14760;SDS011;7472;45.396;5.272;2022-09-17T13:48:59;0.60;;;0.45;;
14760;SDS011;7472;45.396;5.272;2022-09-17T13:54:13;0.63;;;0.40;;
14760;SDS011;7472;45.396;5.272;2022-09-17T13:56:42;1.23;;;0.70;;
14760;SDS011;7472;45.396;5.272;2022-09-17T13:59:14;5.20;;;0.55;;
14760;SDS011;7472;45.396;5.272;2022-09-17T14:01:55;1.88;;;0.60;;
14760;SDS011;7472;45.396;5.272;2022-09-17T14:04:32;1.60;;;0.50;;
14760;SDS011;7472;45.396;5.272;2022-09-17T14:07:00;4.45;;;0.60;;
14760;SDS011;7472;45.396;5.272;2022-09-17T14:09:51;2.13;;;0.70;;
14760;SDS011;7472;45.396;5.272;2022-09-17T14:12:47;2.38;;;0.70;;
14760;SDS011;7472;45.396;5.272;2022-09-17T14:18:01;1.02;;;0.52;;
14760;SDS011;7472;45.396;5.272;2022-09-17T14:20:31;1.67;;;0.60;;
14760;SDS011;7472;45.396;5.272;2022-09-17T14:23:01;4.05;;;0.60;;
14760;SDS011;7472;45.396;5.272;2022-09-17T14:25:31;1.17;;;0.63;;
14760;SDS011;7472;45.396;5.272;2022-09-17T14:28:01;4.20;;;0.40;;
14760;SDS011;7472;45.396;5.272;2022-09-17T14:30:29;2.65;;;0.65;;
14760;SDS011;7472;45.396;5.272;2022-09-17T14:33:02;2.65;;;0.73;;
14760;SDS011;7472;45.396;5.272;2022-09-17T14:35:33;1.17;;;0.60;;
14760;SDS011;7472;45.396;5.272;2022-09-17T14:38:02;2.67;;;1.05;;
14760;SDS011;7472;45.396;5.272;2022-09-17T14:40:32;0.98;;;0.40;;
14760;SDS011;7472;45.396;5.272;2022-09-17T14:43:09;3.33;;;1.00;;
14760;SDS011;7472;45.396;5.272;2022-09-17T14:45:41;5.70;;;0.50;;
14760;SDS011;7472;45.396;5.272;2022-09-17T14:48:29;1.88;;;0.70;;
14760;SDS011;7472;45.396;5.272;2022-09-17T14:53:43;5.25;;;0.68;;
14760;SDS011;7472;45.396;5.272;2022-09-17T14:56:11;2.08;;;0.63;;
14760;SDS011;7472;45.396;5.272;2022-09-17T14:58:40;2.25;;;0.70;;
14760;SDS011;7472;45.396;5.272;2022-09-17T15:01:13;2.25;;;0.60;;
14760;SDS011;7472;45.396;5.272;2022-09-17T15:03:48;2.95;;;0.80;;
14760;SDS011;7472;45.396;5.272;2022-09-17T15:06:18;1.98;;;0.70;;
14760;SDS011;7472;45.396;5.272;2022-09-17T15:08:46;3.60;;;0.70;;
14760;SDS011;7472;45.396;5.272;2022-09-17T15:11:13;1.23;;;0.57;;
14760;SDS011;7472;45.396;5.272;2022-09-17T15:13:43;2.25;;;1.05;;
14760;SDS011;7472;45.396;5.272;2022-09-17T15:16:15;3.05;;;0.80;;
14760;SDS011;7472;45.396;5.272;2022-09-17T15:18:46;2.47;;;1.15;;
14760;SDS011;7472;45.396;5.272;2022-09-17T15:21:20;0.50;;;0.32;;
14760;SDS011;7472;45.396;5.272;2022-09-17T15:23:52;1.70;;;0.40;;
14760;SDS011;7472;45.396;5.272;2022-09-17T15:26:21;1.98;;;0.65;;
14760;SDS011;7472;45.396;5.272;2022-09-17T15:28:51;1.10;;;0.50;;
14760;SDS011;7472;45.396;5.272;2022-09-17T15:31:23;0.98;;;0.43;;
14760;SDS011;7472;45.396;5.272;2022-09-17T15:33:50;1.83;;;0.50;;
14760;SDS011;7472;45.396;5.272;2022-09-17T15:36:20;1.02;;;0.50;;
14760;SDS011;7472;45.396;5.272;2022-09-17T15:38:48;2.17;;;0.60;;
14760;SDS011;7472;45.396;5.272;2022-09-17T15:41:22;3.38;;;0.80;;